Time,TemperatureF,DewpointF,PressureIn,WindDirection,WindDirectionDegrees,WindSpeedMPH,WindSpeedGustMPH,Humidity,HourlyPrecipIn,Conditions,Clouds,dailyrainin,SoftwareType,DateUTC
2013-05-17 00:01:00,77.0,65.7,30.04,SE,135,1.1,3.4,68,0.00,,,0.00,WUHU216HW,2013-05-17 04:01:00,
2013-05-17 00:03:00,76.9,65.5,30.04,ESE,113,1.1,3.4,68,0.00,,,0.00,WUHU216HW,2013-05-17 04:03:00,
2013-05-17 00:08:00,76.9,65.5,30.04,SE,135,0.9,3.4,68,0.00,,,0.00,WUHU216HW,2013-05-17 04:08:00,
2013-05-17 00:13:00,76.7,65.3,30.04,ESE,113,0.7,2.9,68,0.00,,,0.00,WUHU216HW,2013-05-17 04:13:00,
2013-05-17 00:18:00,76.7,65.3,30.04,ESE,113,0.2,2.2,68,0.00,,,0.00,WUHU216HW,2013-05-17 04:18:00,
2013-05-17 00:23:00,76.5,65.2,30.04,ESE,113,0.9,1.1,68,0.00,,,0.00,WUHU216HW,2013-05-17 04:23:00,
2013-05-17 00:28:00,76.5,65.6,30.04,ESE,113,1.8,1.8,69,0.00,,,0.00,WUHU216HW,2013-05-17 04:28:00,
2013-05-17 00:33:00,76.5,65.6,30.04,ESE,113,1.1,1.8,69,0.00,,,0.00,WUHU216HW,2013-05-17 04:33:00,
2013-05-17 00:38:00,76.3,65.4,30.04,ESE,113,1.1,2.5,69,0.00,,,0.00,WUHU216HW,2013-05-17 04:38:00,
2013-05-17 00:44:00,76.3,65.4,30.04,East,90,1.3,2.5,69,0.00,,,0.00,WUHU216HW,2013-05-17 04:44:00,
2013-05-17 00:49:00,76.3,65.4,30.04,ESE,113,0.9,1.3,69,0.00,,,0.00,WUHU216HW,2013-05-17 04:49:00,
2013-05-17 00:54:00,76.3,65.4,30.04,ESE,113,0.7,1.1,69,0.00,,,0.00,WUHU216HW,2013-05-17 04:54:00,
2013-05-17 00:59:00,76.3,65.4,30.04,ESE,113,1.8,1.8,69,0.00,,,0.00,WUHU216HW,2013-05-17 04:59:00,
2013-05-17 01:04:00,76.1,65.3,30.04,ESE,113,0.4,1.8,69,0.00,,,0.00,WUHU216HW,2013-05-17 05:04:00,
2013-05-17 01:09:00,76.1,65.3,30.03,SE,135,1.1,1.8,69,0.00,,,0.00,WUHU216HW,2013-05-17 05:09:00,
2013-05-17 01:14:00,76.1,65.3,30.03,ESE,113,0.4,2.0,69,0.00,,,0.00,WUHU216HW,2013-05-17 05:14:00,
2013-05-17 01:19:00,76.1,65.3,30.03,SSE,158,0.2,2.2,69,0.00,,,0.00,WUHU216HW,2013-05-17 05:19:00,
2013-05-17 01:24:00,76.0,65.1,30.03,SSE,158,0.0,2.2,69,0.00,,,0.00,WUHU216HW,2013-05-17 05:24:00,
2013-05-17 01:29:00,76.0,65.5,30.03,SSE,158,0.0,0.9,70,0.00,,,0.00,WUHU216HW,2013-05-17 05:29:00,
2013-05-17 01:35:00,75.8,65.3,30.03,SE,135,0.4,0.4,70,0.00,,,0.00,WUHU216HW,2013-05-17 05:35:00,
2013-05-17 01:40:00,75.6,65.2,30.03,NE,45,0.4,1.8,70,0.00,,,0.00,WUHU216HW,2013-05-17 05:40:00,
2013-05-17 01:45:00,75.2,64.8,30.03,NNE,23,0.4,1.8,70,0.00,,,0.00,WUHU216HW,2013-05-17 05:45:00,
2013-05-17 01:50:00,75.2,65.2,30.03,NE,45,0.0,1.1,71,0.00,,,0.00,WUHU216HW,2013-05-17 05:50:00,
2013-05-17 01:55:00,75.2,65.2,30.03,NE,45,0.0,0.4,71,0.00,,,0.00,WUHU216HW,2013-05-17 05:55:00,
2013-05-17 02:00:00,75.2,65.2,30.03,NE,45,0.0,0.4,71,0.00,,,0.00,WUHU216HW,2013-05-17 06:00:00,
2013-05-17 02:05:00,75.1,65.1,30.02,ENE,68,0.4,0.4,71,0.00,,,0.00,WUHU216HW,2013-05-17 06:05:00,
2013-05-17 02:10:00,74.9,65.3,30.02,East,90,0.0,0.7,72,0.00,,,0.00,WUHU216HW,2013-05-17 06:10:00,
2013-05-17 02:16:00,74.7,65.1,30.02,East,90,0.0,0.7,72,0.00,,,0.00,WUHU216HW,2013-05-17 06:16:00,
2013-05-17 02:24:00,74.5,64.9,30.02,NE,45,0.4,0.4,72,0.00,,,0.00,WUHU216HW,2013-05-17 06:24:00,
2013-05-17 02:29:00,74.3,64.8,30.02,NE,45,0.2,1.3,72,0.00,,,0.00,WUHU216HW,2013-05-17 06:29:00,
2013-05-17 02:35:00,74.3,64.8,30.02,ENE,68,0.0,1.3,72,0.00,,,0.00,WUHU216HW,2013-05-17 06:35:00,
2013-05-17 02:40:00,74.3,65.2,30.01,ESE,113,0.4,1.1,73,0.00,,,0.00,WUHU216HW,2013-05-17 06:40:00,
2013-05-17 02:45:00,74.3,65.2,30.02,ESE,113,1.1,1.1,73,0.00,,,0.00,WUHU216HW,2013-05-17 06:45:00,
2013-05-17 02:50:00,74.3,65.2,30.01,ESE,113,0.0,1.1,73,0.00,,,0.00,WUHU216HW,2013-05-17 06:50:00,
2013-05-17 02:55:00,74.2,65.0,30.01,ESE,113,0.7,0.7,73,0.00,,,0.00,WUHU216HW,2013-05-17 06:55:00,
2013-05-17 03:00:00,74.2,65.0,30.02,ESE,113,0.0,0.7,73,0.00,,,0.00,WUHU216HW,2013-05-17 07:00:00,
2013-05-17 03:05:00,74.2,65.0,30.01,ESE,113,0.0,0.7,73,0.00,,,0.00,WUHU216HW,2013-05-17 07:05:00,
2013-05-17 03:10:00,74.2,65.0,30.01,ESE,113,0.0,0.7,73,0.00,,,0.00,WUHU216HW,2013-05-17 07:10:00,
2013-05-17 03:16:00,74.2,65.0,30.01,ESE,113,0.0,0.4,73,0.00,,,0.00,WUHU216HW,2013-05-17 07:16:00,
2013-05-17 03:21:00,74.2,65.0,30.01,ESE,113,0.0,0.2,73,0.00,,,0.00,WUHU216HW,2013-05-17 07:21:00,
2013-05-17 03:26:00,74.2,65.0,30.01,ESE,113,0.0,0.0,73,0.00,,,0.00,WUHU216HW,2013-05-17 07:26:00,
2013-05-17 03:31:00,74.0,65.2,30.01,ESE,113,0.0,0.0,74,0.00,,,0.00,WUHU216HW,2013-05-17 07:31:00,
2013-05-17 03:36:00,73.8,65.1,30.01,ESE,113,0.0,0.0,74,0.00,,,0.00,WUHU216HW,2013-05-17 07:36:00,
2013-05-17 03:41:00,73.8,65.1,30.01,ESE,113,0.0,0.0,74,0.00,,,0.00,WUHU216HW,2013-05-17 07:41:00,
2013-05-17 03:46:00,73.8,65.1,30.00,ESE,113,0.0,0.4,74,0.00,,,0.00,WUHU216HW,2013-05-17 07:46:00,
2013-05-17 03:51:00,73.8,65.1,30.00,ESE,113,0.4,0.4,74,0.00,,,0.00,WUHU216HW,2013-05-17 07:51:00,
2013-05-17 03:56:00,73.8,65.4,30.00,ESE,113,0.0,0.4,75,0.00,,,0.00,WUHU216HW,2013-05-17 07:56:00,
2013-05-17 04:01:00,73.6,65.3,30.00,ESE,113,0.0,0.4,75,0.00,,,0.00,WUHU216HW,2013-05-17 08:01:00,
2013-05-17 04:06:00,73.4,65.1,30.00,ESE,113,0.0,0.0,75,0.00,,,0.00,WUHU216HW,2013-05-17 08:06:00,
2013-05-17 04:12:00,73.4,65.1,30.00,ESE,113,0.0,0.2,75,0.00,,,0.00,WUHU216HW,2013-05-17 08:12:00,
2013-05-17 04:17:00,73.3,64.9,30.00,ESE,113,0.0,0.2,75,0.00,,,0.00,WUHU216HW,2013-05-17 08:17:00,
2013-05-17 04:22:00,73.3,64.9,30.00,ESE,113,0.0,0.4,75,0.00,,,0.00,WUHU216HW,2013-05-17 08:22:00,
2013-05-17 04:27:00,73.1,64.7,30.00,ESE,113,0.0,0.4,75,0.00,,,0.00,WUHU216HW,2013-05-17 08:27:00,
2013-05-17 04:32:00,73.1,64.7,30.00,ESE,113,0.0,0.0,75,0.00,,,0.00,WUHU216HW,2013-05-17 08:32:00,
2013-05-17 04:37:00,72.9,64.5,30.01,ESE,113,0.0,0.4,75,0.00,,,0.00,WUHU216HW,2013-05-17 08:37:00,
2013-05-17 04:42:00,72.9,64.9,30.00,ESE,113,0.0,0.4,76,0.00,,,0.00,WUHU216HW,2013-05-17 08:42:00,
2013-05-17 04:47:00,72.7,64.7,30.01,ESE,113,0.0,0.0,76,0.00,,,0.00,WUHU216HW,2013-05-17 08:47:00,
2013-05-17 04:52:00,72.5,64.5,30.01,ESE,113,0.0,0.0,76,0.00,,,0.00,WUHU216HW,2013-05-17 08:52:00,
2013-05-17 04:57:00,72.5,64.5,30.01,ESE,113,0.4,0.4,76,0.00,,,0.00,WUHU216HW,2013-05-17 08:57:00,
2013-05-17 05:02:00,72.4,64.4,30.01,ESE,113,0.0,0.4,76,0.00,,,0.00,WUHU216HW,2013-05-17 09:02:00,
2013-05-17 05:07:00,72.4,64.4,30.01,East,90,0.2,0.4,76,0.00,,,0.00,WUHU216HW,2013-05-17 09:07:00,
2013-05-17 05:13:00,72.4,64.7,30.00,ESE,113,0.0,0.9,77,0.00,,,0.00,WUHU216HW,2013-05-17 09:13:00,
2013-05-17 05:18:00,72.2,64.2,30.01,ESE,113,0.0,0.9,76,0.00,,,0.00,WUHU216HW,2013-05-17 09:18:00,
2013-05-17 05:23:00,72.2,64.2,30.00,ESE,113,0.0,0.0,76,0.00,,,0.00,WUHU216HW,2013-05-17 09:23:00,
2013-05-17 05:28:00,72.0,64.0,30.00,ESE,113,0.0,0.0,76,0.00,,,0.00,WUHU216HW,2013-05-17 09:28:00,
2013-05-17 05:33:00,72.0,64.0,30.01,East,90,0.4,0.4,76,0.00,,,0.00,WUHU216HW,2013-05-17 09:33:00,
2013-05-17 05:38:00,71.8,63.8,30.01,ENE,68,0.0,0.9,76,0.00,,,0.00,WUHU216HW,2013-05-17 09:38:00,
2013-05-17 05:43:00,71.8,63.8,30.01,ENE,68,0.0,0.4,76,0.00,,,0.00,WUHU216HW,2013-05-17 09:43:00,
2013-05-17 05:48:00,71.6,64.0,30.01,ENE,68,0.0,0.7,77,0.00,,,0.00,WUHU216HW,2013-05-17 09:48:00,
2013-05-17 05:54:00,71.6,64.0,30.01,ENE,68,0.0,0.7,77,0.00,,,0.00,WUHU216HW,2013-05-17 09:54:00,
2013-05-17 05:59:00,71.5,63.8,30.01,ENE,68,0.0,0.0,77,0.00,,,0.00,WUHU216HW,2013-05-17 09:59:00,
2013-05-17 06:04:00,71.5,63.8,30.02,ENE,68,0.0,0.4,77,0.00,,,0.00,WUHU216HW,2013-05-17 10:04:00,
2013-05-17 06:09:00,71.5,63.8,30.02,ENE,68,0.0,0.4,77,0.00,,,0.00,WUHU216HW,2013-05-17 10:09:00,
2013-05-17 06:14:00,71.5,63.8,30.02,ENE,68,0.0,0.0,77,0.00,,,0.00,WUHU216HW,2013-05-17 10:14:00,
2013-05-17 06:19:00,71.3,63.6,30.02,ENE,68,0.0,0.4,77,0.00,,,0.00,WUHU216HW,2013-05-17 10:19:00,
2013-05-17 06:24:00,71.3,63.6,30.02,ENE,68,0.0,0.2,77,0.00,,,0.00,WUHU216HW,2013-05-17 10:24:00,
2013-05-17 06:29:00,71.3,64.1,30.02,ENE,68,0.0,0.0,78,0.00,,,0.00,WUHU216HW,2013-05-17 10:29:00,
2013-05-17 06:34:00,71.3,64.1,30.02,ENE,68,0.0,0.0,78,0.00,,,0.00,WUHU216HW,2013-05-17 10:34:00,
2013-05-17 06:40:00,71.3,64.1,30.02,ENE,68,0.0,0.0,78,0.00,,,0.00,WUHU216HW,2013-05-17 10:40:00,
2013-05-17 06:59:00,70.9,63.7,30.03,NE,45,1.1,1.1,78,0.00,,,0.00,WUHU216HW,2013-05-17 10:59:00,
2013-05-17 07:04:00,70.9,63.7,30.03,NNE,23,1.3,1.3,78,0.00,,,0.00,WUHU216HW,2013-05-17 11:04:00,
2013-05-17 07:09:00,70.7,63.9,30.04,NNE,23,0.7,1.3,79,0.00,,,0.00,WUHU216HW,2013-05-17 11:09:00,
2013-05-17 07:14:00,70.7,63.9,30.04,NE,45,0.9,1.3,79,0.00,,,0.00,WUHU216HW,2013-05-17 11:14:00,
2013-05-17 07:20:00,70.6,63.7,30.04,NE,45,1.1,1.6,79,0.00,,,0.00,WUHU216HW,2013-05-17 11:20:00,
2013-05-17 07:25:00,70.6,63.7,30.04,NNE,23,1.6,2.5,79,0.00,,,0.00,WUHU216HW,2013-05-17 11:25:00,
2013-05-17 07:30:00,70.6,63.7,30.04,NE,45,1.3,2.5,79,0.00,,,0.00,WUHU216HW,2013-05-17 11:30:00,
2013-05-17 07:35:00,70.6,64.1,30.04,North,0,0.9,2.2,80,0.00,,,0.00,WUHU216HW,2013-05-17 11:35:00,
2013-05-17 07:40:00,70.6,64.1,30.04,ENE,68,1.6,2.0,80,0.00,,,0.00,WUHU216HW,2013-05-17 11:40:00,
2013-05-17 07:45:00,70.6,64.1,30.04,NNE,23,0.9,2.5,80,0.00,,,0.00,WUHU216HW,2013-05-17 11:45:00,
2013-05-17 07:50:00,70.9,64.4,30.04,NE,45,0.7,2.5,80,0.00,,,0.00,WUHU216HW,2013-05-17 11:50:00,
2013-05-17 07:55:00,70.9,64.4,30.04,NNE,23,1.1,1.8,80,0.00,,,0.00,WUHU216HW,2013-05-17 11:55:00,
2013-05-17 08:01:00,71.3,64.8,30.04,NNE,23,0.9,1.8,80,0.00,,,0.00,WUHU216HW,2013-05-17 12:01:00,
2013-05-17 08:06:00,71.5,64.6,30.04,NE,45,1.8,1.8,79,0.00,,,0.00,WUHU216HW,2013-05-17 12:06:00,
2013-05-17 08:11:00,71.6,64.8,30.04,NE,45,1.6,2.2,79,0.00,,,0.00,WUHU216HW,2013-05-17 12:11:00,
2013-05-17 08:16:00,71.8,65.0,30.04,NE,45,1.6,2.2,79,0.00,,,0.00,WUHU216HW,2013-05-17 12:16:00,
2013-05-17 08:21:00,72.0,64.8,30.04,ESE,113,0.9,1.6,78,0.00,,,0.00,WUHU216HW,2013-05-17 12:21:00,
2013-05-17 08:26:00,72.4,65.2,30.05,NE,45,0.4,1.1,78,0.00,,,0.00,WUHU216HW,2013-05-17 12:26:00,
2013-05-17 08:31:00,72.5,65.7,30.05,NNW,338,1.3,1.3,79,0.00,,,0.00,WUHU216HW,2013-05-17 12:31:00,
2013-05-17 08:36:00,72.7,65.9,30.05,North,0,0.4,1.3,79,0.00,,,0.00,WUHU216HW,2013-05-17 12:36:00,
2013-05-17 08:41:00,73.1,66.3,30.05,ENE,68,0.0,1.8,79,0.00,,,0.00,WUHU216HW,2013-05-17 12:41:00,
2013-05-17 08:47:00,73.3,66.4,30.05,North,0,0.4,1.8,79,0.00,,,0.00,WUHU216HW,2013-05-17 12:47:00,
2013-05-17 08:52:00,73.4,66.3,30.05,ENE,68,1.8,1.8,78,0.00,,,0.00,WUHU216HW,2013-05-17 12:52:00,
2013-05-17 08:57:00,73.8,66.6,30.05,NE,45,2.5,2.5,78,0.00,,,0.00,WUHU216HW,2013-05-17 12:57:00,
2013-05-17 09:02:00,74.2,66.9,30.05,NE,45,0.0,2.5,78,0.00,,,0.00,WUHU216HW,2013-05-17 13:02:00,
2013-05-17 09:07:00,74.5,67.2,30.04,SSE,158,0.4,1.8,78,0.00,,,0.00,WUHU216HW,2013-05-17 13:07:00,
2013-05-17 09:12:00,74.9,67.2,30.05,East,90,0.4,1.8,77,0.00,,,0.00,WUHU216HW,2013-05-17 13:12:00,
2013-05-17 09:17:00,75.2,67.6,30.05,ESE,113,0.4,1.8,77,0.00,,,0.00,WUHU216HW,2013-05-17 13:17:00,
2013-05-17 09:22:00,75.8,67.7,30.05,SE,135,0.4,1.3,76,0.00,,,0.00,WUHU216HW,2013-05-17 13:22:00,
2013-05-17 09:28:00,76.3,67.8,30.05,SSE,158,0.2,1.6,75,0.00,,,0.00,WUHU216HW,2013-05-17 13:28:00,
2013-05-17 09:33:00,77.0,68.5,30.05,ESE,113,0.0,1.6,75,0.00,,,0.00,WUHU216HW,2013-05-17 13:33:00,
2013-05-17 09:38:00,77.4,68.5,30.05,ESE,113,1.1,1.6,74,0.00,,,0.00,WUHU216HW,2013-05-17 13:38:00,
2013-05-17 09:43:00,77.9,68.6,30.05,SE,135,1.6,1.6,73,0.00,,,0.00,WUHU216HW,2013-05-17 13:43:00,
2013-05-17 09:48:00,78.5,69.0,30.05,SE,135,0.9,1.6,73,0.00,,,0.00,WUHU216HW,2013-05-17 13:48:00,
2013-05-17 09:53:00,79.0,69.2,30.05,SE,135,0.2,0.9,72,0.00,,,0.00,WUHU216HW,2013-05-17 13:53:00,
2013-05-17 09:58:00,79.6,69.3,30.06,ESE,113,0.2,1.3,71,0.00,,,0.00,WUHU216HW,2013-05-17 13:58:00,
2013-05-17 10:03:00,79.9,68.4,30.05,NE,45,2.5,2.5,68,0.00,,,0.00,WUHU216HW,2013-05-17 14:03:00,
2013-05-17 10:08:00,79.9,68.0,30.06,ESE,113,0.9,2.5,67,0.00,,,0.00,WUHU216HW,2013-05-17 14:08:00,
2013-05-17 10:13:00,79.9,67.5,30.05,ENE,68,1.1,2.2,66,0.00,,,0.00,WUHU216HW,2013-05-17 14:13:00,
2013-05-17 10:19:00,80.1,67.7,30.06,ESE,113,0.4,3.1,66,0.00,,,0.00,WUHU216HW,2013-05-17 14:19:00,
2013-05-17 10:24:00,80.6,68.2,30.06,NE,45,0.2,3.4,66,0.00,,,0.00,WUHU216HW,2013-05-17 14:24:00,
2013-05-17 10:29:00,81.0,67.7,30.06,NNE,23,0.7,3.4,64,0.00,,,0.00,WUHU216HW,2013-05-17 14:29:00,
2013-05-17 10:34:00,81.0,66.8,30.06,ENE,68,1.6,3.1,62,0.00,,,0.00,WUHU216HW,2013-05-17 14:34:00,
2013-05-17 10:39:00,81.2,66.4,30.06,NNW,338,2.7,3.4,61,0.00,,,0.00,WUHU216HW,2013-05-17 14:39:00,
2013-05-17 10:44:00,81.5,67.2,30.05,North,0,2.5,3.4,62,0.00,,,0.00,WUHU216HW,2013-05-17 14:44:00,
2013-05-17 10:49:00,81.9,66.7,30.05,NNW,338,0.7,3.6,60,0.00,,,0.00,WUHU216HW,2013-05-17 14:49:00,
2013-05-17 10:54:00,82.1,65.8,30.05,East,90,2.2,3.6,58,0.00,,,0.00,WUHU216HW,2013-05-17 14:54:00,
2013-05-17 11:03:00,82.4,67.6,30.05,ENE,68,0.9,2.2,61,0.00,,,0.00,WUHU216HW,2013-05-17 15:03:00,
2013-05-17 11:08:00,83.2,66.8,30.06,North,0,2.5,2.5,58,0.00,,,0.00,WUHU216HW,2013-05-17 15:08:00,
2013-05-17 11:13:00,83.2,66.8,30.05,NNW,338,2.0,4.0,58,0.00,,,0.00,WUHU216HW,2013-05-17 15:13:00,
2013-05-17 11:18:00,83.7,65.8,30.05,ENE,68,4.7,4.7,55,0.00,,,0.00,WUHU216HW,2013-05-17 15:18:00,
2013-05-17 11:23:00,83.7,67.3,30.06,NW,315,1.1,4.7,58,0.00,,,0.00,WUHU216HW,2013-05-17 15:23:00,
2013-05-17 11:28:00,83.9,67.1,30.06,NNE,23,2.5,4.9,57,0.00,,,0.00,WUHU216HW,2013-05-17 15:28:00,
2013-05-17 11:33:00,84.2,67.4,30.06,NW,315,1.1,4.9,57,0.00,,,0.00,WUHU216HW,2013-05-17 15:33:00,
2013-05-17 11:38:00,84.4,67.1,30.06,NW,315,3.4,3.4,56,0.00,,,0.00,WUHU216HW,2013-05-17 15:38:00,
2013-05-17 11:44:00,84.8,66.8,30.05,NNE,23,1.1,3.4,55,0.00,,,0.00,WUHU216HW,2013-05-17 15:44:00,
2013-05-17 11:49:00,85.3,67.9,30.05,West,270,1.1,2.9,56,0.00,,,0.00,WUHU216HW,2013-05-17 15:49:00,
2013-05-17 11:54:00,86.0,68.5,30.05,SSE,158,0.2,2.9,56,0.00,,,0.00,WUHU216HW,2013-05-17 15:54:00,
2013-05-17 11:59:00,86.4,65.7,30.05,NE,45,4.0,4.0,50,0.00,,,0.00,WUHU216HW,2013-05-17 15:59:00,
2013-05-17 12:04:00,86.0,66.9,30.05,NNW,338,2.0,4.0,53,0.00,,,0.00,WUHU216HW,2013-05-17 16:04:00,
2013-05-17 12:09:00,86.0,67.4,30.05,SW,225,0.4,2.5,54,0.00,,,0.00,WUHU216HW,2013-05-17 16:09:00,
2013-05-17 12:14:00,86.6,68.5,30.05,SSW,203,0.9,1.1,55,0.00,,,0.00,WUHU216HW,2013-05-17 16:14:00,
2013-05-17 12:19:00,87.5,68.8,30.05,NNE,23,1.8,2.5,54,0.00,,,0.00,WUHU216HW,2013-05-17 16:19:00,
2013-05-17 12:24:00,87.5,68.2,30.05,ESE,113,1.1,2.5,53,0.00,,,0.00,WUHU216HW,2013-05-17 16:24:00,
2013-05-17 12:30:00,87.5,68.8,30.05,WNW,293,1.6,1.8,54,0.00,,,0.00,WUHU216HW,2013-05-17 16:30:00,
2013-05-17 12:35:00,88.2,69.5,30.05,WSW,248,0.7,1.8,54,0.00,,,0.00,WUHU216HW,2013-05-17 16:35:00,
2013-05-17 12:40:00,88.2,69.5,30.05,West,270,2.5,3.1,54,0.00,,,0.00,WUHU216HW,2013-05-17 16:40:00,
2013-05-17 12:45:00,88.2,69.5,30.05,West,270,1.3,4.3,54,0.00,,,0.00,WUHU216HW,2013-05-17 16:45:00,
2013-05-17 12:50:00,88.0,69.9,30.05,SSW,203,0.4,4.7,55,0.00,,,0.00,WUHU216HW,2013-05-17 16:50:00,
2013-05-17 12:55:00,88.2,70.6,30.04,North,0,1.3,4.7,56,0.00,,,0.00,WUHU216HW,2013-05-17 16:55:00,
2013-05-17 13:00:00,88.0,69.9,30.05,NW,315,2.5,3.1,55,0.00,,,0.00,WUHU216HW,2013-05-17 17:00:00,
2013-05-17 13:05:00,88.2,70.6,30.04,West,270,2.2,3.1,56,0.00,,,0.00,WUHU216HW,2013-05-17 17:05:00,
2013-05-17 13:10:00,88.2,70.0,30.04,WSW,248,2.5,2.7,55,0.00,,,0.00,WUHU216HW,2013-05-17 17:10:00,
2013-05-17 13:15:00,88.6,70.3,30.04,NW,315,4.7,4.7,55,0.00,,,0.00,WUHU216HW,2013-05-17 17:15:00,
2013-05-17 13:21:00,88.7,70.5,30.04,NW,315,0.4,4.7,55,0.00,,,0.00,WUHU216HW,2013-05-17 17:21:00,
2013-05-17 13:26:00,88.7,70.5,30.04,South,180,0.2,3.4,55,0.00,,,0.00,WUHU216HW,2013-05-17 17:26:00,
2013-05-17 13:31:00,89.3,70.9,30.04,WNW,293,1.8,3.4,55,0.00,,,0.00,WUHU216HW,2013-05-17 17:31:00,
2013-05-17 13:36:00,89.3,70.4,30.04,South,180,1.1,3.4,54,0.00,,,0.00,WUHU216HW,2013-05-17 17:36:00,
2013-05-17 13:41:00,89.3,70.4,30.04,West,270,2.5,3.1,54,0.00,,,0.00,WUHU216HW,2013-05-17 17:41:00,
2013-05-17 13:46:00,88.9,69.6,30.04,WNW,293,2.9,5.6,53,0.00,,,0.00,WUHU216HW,2013-05-17 17:46:00,
2013-05-17 13:51:00,88.9,70.7,30.04,WSW,248,2.7,5.6,55,0.00,,,0.00,WUHU216HW,2013-05-17 17:51:00,
2013-05-17 13:57:00,89.1,69.8,30.04,SW,225,1.8,3.1,53,0.00,,,0.00,WUHU216HW,2013-05-17 17:57:00,
2013-05-17 14:02:00,88.9,70.1,30.04,NNW,338,3.1,5.4,54,0.00,,,0.00,WUHU216HW,2013-05-17 18:02:00,
2013-05-17 14:07:00,88.7,68.9,30.04,SE,135,1.3,5.4,52,0.00,,,0.00,WUHU216HW,2013-05-17 18:07:00,
2013-05-17 14:12:00,88.6,69.2,30.04,SW,225,2.9,3.6,53,0.00,,,0.00,WUHU216HW,2013-05-17 18:12:00,
2013-05-17 14:17:00,88.6,69.8,30.04,ENE,68,1.1,3.6,54,0.00,,,0.00,WUHU216HW,2013-05-17 18:17:00,
2013-05-17 14:22:00,88.7,69.4,30.03,WSW,248,1.1,2.2,53,0.00,,,0.00,WUHU216HW,2013-05-17 18:22:00,
2013-05-17 14:27:00,88.9,69.6,30.04,South,180,1.8,2.5,53,0.00,,,0.00,WUHU216HW,2013-05-17 18:27:00,
2013-05-17 14:32:00,89.3,69.8,30.03,NW,315,2.5,2.7,53,0.00,,,0.00,WUHU216HW,2013-05-17 18:32:00,
2013-05-17 14:37:00,89.3,69.8,30.03,WNW,293,0.4,4.0,53,0.00,,,0.00,WUHU216HW,2013-05-17 18:37:00,
2013-05-17 14:43:00,89.5,69.5,30.03,SSW,203,2.2,4.5,52,0.00,,,0.00,WUHU216HW,2013-05-17 18:43:00,
2013-05-17 14:48:00,89.5,69.5,30.03,WNW,293,0.7,4.5,52,0.00,,,0.00,WUHU216HW,2013-05-17 18:48:00,
2013-05-17 14:53:00,89.3,69.3,30.03,NNW,338,1.6,4.5,52,0.00,,,0.00,WUHU216HW,2013-05-17 18:53:00,
2013-05-17 14:58:00,89.3,69.3,30.03,SSW,203,0.9,4.7,52,0.00,,,0.00,WUHU216HW,2013-05-17 18:58:00,
2013-05-17 15:03:00,89.6,69.1,30.03,SW,225,4.0,4.0,51,0.00,,,0.00,WUHU216HW,2013-05-17 19:03:00,
2013-05-17 15:08:00,89.8,69.3,30.03,SW,225,1.6,4.0,51,0.00,,,0.00,WUHU216HW,2013-05-17 19:08:00,
2013-05-17 15:13:00,89.8,69.3,30.03,WSW,248,1.3,2.5,51,0.00,,,0.00,WUHU216HW,2013-05-17 19:13:00,
2013-05-17 15:18:00,89.6,69.1,30.03,WSW,248,3.8,3.8,51,0.00,,,0.00,WUHU216HW,2013-05-17 19:18:00,
2013-05-17 15:23:00,89.6,69.1,30.02,NW,315,2.2,3.8,51,0.00,,,0.00,WUHU216HW,2013-05-17 19:23:00,
2013-05-17 15:28:00,89.6,68.6,30.02,West,270,3.4,3.4,50,0.00,,,0.00,WUHU216HW,2013-05-17 19:28:00,
2013-05-17 15:33:00,89.6,68.6,30.02,WNW,293,1.3,3.4,50,0.00,,,0.00,WUHU216HW,2013-05-17 19:33:00,
2013-05-17 15:38:00,89.5,68.9,30.02,SSW,203,1.6,2.5,51,0.00,,,0.00,WUHU216HW,2013-05-17 19:38:00,
2013-05-17 15:44:00,89.5,68.4,30.02,SSW,203,1.3,3.4,50,0.00,,,0.00,WUHU216HW,2013-05-17 19:44:00,
2013-05-17 15:49:00,89.6,68.6,30.02,NW,315,2.0,3.4,50,0.00,,,0.00,WUHU216HW,2013-05-17 19:49:00,
2013-05-17 15:54:00,89.3,68.2,30.02,North,0,0.4,3.4,50,0.00,,,0.00,WUHU216HW,2013-05-17 19:54:00,
2013-05-17 15:59:00,88.9,68.0,30.02,SW,225,1.6,3.4,50,0.00,,,0.00,WUHU216HW,2013-05-17 19:59:00,
2013-05-17 16:04:00,88.9,68.0,30.02,WSW,248,1.1,3.4,50,0.00,,,0.00,WUHU216HW,2013-05-17 20:04:00,
2013-05-17 16:09:00,88.7,67.2,30.02,West,270,4.5,4.7,49,0.00,,,0.00,WUHU216HW,2013-05-17 20:09:00,
2013-05-17 16:14:00,88.6,67.6,30.02,SW,225,2.2,4.7,50,0.00,,,0.00,WUHU216HW,2013-05-17 20:14:00,
2013-05-17 16:19:00,88.6,68.1,30.02,SW,225,3.4,3.6,51,0.00,,,0.00,WUHU216HW,2013-05-17 20:19:00,
2013-05-17 16:25:00,88.6,67.6,30.02,NW,315,1.1,3.6,50,0.00,,,0.00,WUHU216HW,2013-05-17 20:25:00,
2013-05-17 16:30:00,88.6,67.6,30.02,NW,315,1.1,1.1,50,0.00,,,0.00,WUHU216HW,2013-05-17 20:30:00,
2013-05-17 16:50:00,88.9,68.5,30.02,North,0,1.8,1.8,51,0.00,,,0.00,WUHU216HW,2013-05-17 20:50:00,
2013-05-17 16:56:00,88.6,68.1,30.02,NW,315,0.4,2.5,51,0.00,,,0.00,WUHU216HW,2013-05-17 20:56:00,
2013-05-17 17:01:00,88.6,68.1,30.02,SW,225,2.5,3.4,51,0.00,,,0.00,WUHU216HW,2013-05-17 21:01:00,
2013-05-17 17:06:00,88.6,68.1,30.02,WSW,248,3.1,3.4,51,0.00,,,0.00,WUHU216HW,2013-05-17 21:06:00,
2013-05-17 17:11:00,88.2,67.9,30.02,WSW,248,1.6,3.4,51,0.00,,,0.00,WUHU216HW,2013-05-17 21:11:00,
2013-05-17 17:16:00,88.2,67.9,30.02,WSW,248,1.6,3.4,51,0.00,,,0.00,WUHU216HW,2013-05-17 21:16:00,
2013-05-17 17:21:00,88.0,67.7,30.02,SSW,203,0.9,4.3,51,0.00,,,0.00,WUHU216HW,2013-05-17 21:21:00,
2013-05-17 17:26:00,88.2,67.9,30.02,West,270,2.5,3.4,51,0.00,,,0.00,WUHU216HW,2013-05-17 21:26:00,
2013-05-17 17:31:00,88.2,67.9,30.02,WNW,293,2.2,2.5,51,0.00,,,0.00,WUHU216HW,2013-05-17 21:31:00,
2013-05-17 17:37:00,87.8,67.5,30.02,NW,315,1.8,3.1,51,0.00,,,0.00,WUHU216HW,2013-05-17 21:37:00,
2013-05-17 17:42:00,87.8,67.5,30.02,NW,315,1.1,3.1,51,0.00,,,0.00,WUHU216HW,2013-05-17 21:42:00,
2013-05-17 17:47:00,87.7,67.3,30.02,SW,225,2.2,3.1,51,0.00,,,0.00,WUHU216HW,2013-05-17 21:47:00,
2013-05-17 17:52:00,87.7,67.9,30.01,SW,225,0.4,2.7,52,0.00,,,0.00,WUHU216HW,2013-05-17 21:52:00,
2013-05-17 17:57:00,87.7,67.3,30.02,WSW,248,1.8,2.2,51,0.00,,,0.00,WUHU216HW,2013-05-17 21:57:00,
2013-05-17 18:02:00,87.5,67.1,30.02,SE,135,0.4,2.2,51,0.00,,,0.00,WUHU216HW,2013-05-17 22:02:00,
2013-05-17 18:07:00,87.3,67.5,30.02,SSW,203,0.2,2.2,52,0.00,,,0.00,WUHU216HW,2013-05-17 22:07:00,
2013-05-17 18:13:00,87.3,67.5,30.01,WSW,248,0.4,2.5,52,0.00,,,0.00,WUHU216HW,2013-05-17 22:13:00,
2013-05-17 18:18:00,86.9,67.2,30.01,West,270,1.3,3.4,52,0.00,,,0.00,WUHU216HW,2013-05-17 22:18:00,
2013-05-17 18:23:00,86.8,67.6,30.01,West,270,0.9,3.4,53,0.00,,,0.00,WUHU216HW,2013-05-17 22:23:00,
2013-05-17 18:28:00,86.6,67.4,30.01,SW,225,0.9,2.7,53,0.00,,,0.00,WUHU216HW,2013-05-17 22:28:00,
2013-05-17 18:33:00,86.2,67.6,30.01,West,270,1.3,2.7,54,0.00,,,0.00,WUHU216HW,2013-05-17 22:33:00,
2013-05-17 18:38:00,86.2,67.1,30.01,SW,225,1.6,1.6,53,0.00,,,0.00,WUHU216HW,2013-05-17 22:38:00,
2013-05-17 18:43:00,86.0,66.9,30.01,WSW,248,0.7,2.2,53,0.00,,,0.00,WUHU216HW,2013-05-17 22:43:00,
2013-05-17 18:48:00,86.2,67.1,30.01,NW,315,1.1,2.2,53,0.00,,,0.00,WUHU216HW,2013-05-17 22:48:00,
2013-05-17 18:53:00,86.0,67.4,30.01,SW,225,1.3,1.3,54,0.00,,,0.00,WUHU216HW,2013-05-17 22:53:00,
2013-05-17 18:59:00,85.9,67.2,30.01,WSW,248,0.7,1.8,54,0.00,,,0.00,WUHU216HW,2013-05-17 22:59:00,
2013-05-17 19:04:00,85.7,67.2,30.01,WNW,293,0.4,1.8,54,0.00,,,0.00,WUHU216HW,2013-05-17 23:04:00,
2013-05-17 19:09:00,85.3,67.3,30.01,West,270,1.1,2.0,55,0.00,,,0.00,WUHU216HW,2013-05-17 23:09:00,
2013-05-17 19:14:00,85.3,67.3,30.02,SW,225,0.0,2.0,55,0.00,,,0.00,WUHU216HW,2013-05-17 23:14:00,
2013-05-17 19:19:00,85.1,67.1,30.01,WNW,293,0.0,1.8,55,0.00,,,0.00,WUHU216HW,2013-05-17 23:19:00,
2013-05-17 19:26:00,85.0,67.5,30.01,SSW,203,0.4,1.8,56,0.00,,,0.00,WUHU216HW,2013-05-17 23:26:00,
2013-05-17 19:31:00,84.8,67.3,30.02,West,270,1.8,1.8,56,0.00,,,0.00,WUHU216HW,2013-05-17 23:31:00,
2013-05-17 19:36:00,84.4,67.1,30.02,SW,225,0.0,1.8,56,0.00,,,0.00,WUHU216HW,2013-05-17 23:36:00,
2013-05-17 19:42:00,84.6,67.7,30.02,SSW,203,0.4,1.1,57,0.00,,,0.00,WUHU216HW,2013-05-17 23:42:00,
2013-05-17 19:48:00,84.2,67.4,30.02,WNW,293,0.0,0.4,57,0.00,,,0.00,WUHU216HW,2013-05-17 23:48:00,
2013-05-17 19:53:00,83.9,67.1,30.02,West,270,0.4,1.1,57,0.00,,,0.00,WUHU216HW,2013-05-17 23:53:00,
2013-05-17 19:58:00,83.5,67.1,30.02,WNW,293,0.0,0.7,58,0.00,,,0.00,WUHU216HW,2013-05-17 23:58:00,
2013-05-17 20:04:00,83.5,67.1,30.02,West,270,0.4,0.9,58,0.00,,,0.00,WUHU216HW,2013-05-18 00:04:00,
2013-05-17 20:09:00,83.2,66.3,30.02,West,270,0.7,0.9,57,0.00,,,0.00,WUHU216HW,2013-05-18 00:09:00,
2013-05-17 20:14:00,83.0,66.6,30.02,WNW,293,0.0,1.1,58,0.00,,,0.00,WUHU216HW,2013-05-18 00:14:00,
2013-05-17 20:19:00,82.6,66.2,30.02,NW,315,0.0,1.1,58,0.00,,,0.00,WUHU216HW,2013-05-18 00:19:00,
2013-05-17 20:24:00,82.4,66.6,30.02,SW,225,1.3,1.3,59,0.00,,,0.00,WUHU216HW,2013-05-18 00:24:00,
2013-05-17 20:29:00,82.1,66.8,30.02,WNW,293,0.4,1.3,60,0.00,,,0.00,WUHU216HW,2013-05-18 00:29:00,
2013-05-17 20:34:00,81.9,66.7,30.02,West,270,0.7,1.6,60,0.00,,,0.00,WUHU216HW,2013-05-18 00:34:00,
2013-05-17 20:39:00,81.7,67.0,30.02,WNW,293,0.9,2.2,61,0.00,,,0.00,WUHU216HW,2013-05-18 00:39:00,
2013-05-17 20:44:00,81.7,67.0,30.02,WNW,293,0.9,2.2,61,0.00,,,0.00,WUHU216HW,2013-05-18 00:44:00,
2013-05-17 20:59:00,81.4,67.5,30.03,NNW,338,0.2,0.2,63,0.00,,,0.00,WUHU216HW,2013-05-18 00:59:00,
2013-05-17 21:04:00,81.2,67.3,30.03,NW,315,1.1,1.3,63,0.00,,,0.00,WUHU216HW,2013-05-18 01:04:00,
2013-05-17 21:09:00,81.0,67.7,30.03,WNW,293,0.4,1.8,64,0.00,,,0.00,WUHU216HW,2013-05-18 01:09:00,
2013-05-17 21:15:00,81.0,67.7,30.03,West,270,0.7,1.8,64,0.00,,,0.00,WUHU216HW,2013-05-18 01:15:00,
2013-05-17 21:20:00,81.0,68.1,30.03,WNW,293,0.0,1.6,65,0.00,,,0.00,WUHU216HW,2013-05-18 01:20:00,
2013-05-17 21:25:00,81.0,68.1,30.03,WNW,293,0.0,1.6,65,0.00,,,0.00,WUHU216HW,2013-05-18 01:25:00,
2013-05-17 21:30:00,80.8,68.0,30.03,WNW,293,0.4,1.1,65,0.00,,,0.00,WUHU216HW,2013-05-18 01:30:00,
2013-05-17 21:35:00,80.6,68.2,30.04,NW,315,0.0,1.1,66,0.00,,,0.00,WUHU216HW,2013-05-18 01:35:00,
2013-05-17 21:40:00,80.5,68.0,30.04,North,0,1.1,1.1,66,0.00,,,0.00,WUHU216HW,2013-05-18 01:40:00,
2013-05-17 21:45:00,80.5,68.0,30.04,NNW,338,0.9,1.1,66,0.00,,,0.00,WUHU216HW,2013-05-18 01:45:00,
2013-05-17 21:52:00,80.3,67.9,30.04,NNW,338,0.9,1.3,66,0.00,,,0.00,WUHU216HW,2013-05-18 01:52:00,
2013-05-17 21:57:00,80.3,67.9,30.04,North,0,1.1,1.1,66,0.00,,,0.00,WUHU216HW,2013-05-18 01:57:00,
2013-05-17 22:02:00,80.3,67.9,30.04,North,0,0.0,1.1,66,0.00,,,0.00,WUHU216HW,2013-05-18 02:02:00,
2013-05-17 22:07:00,80.1,67.7,30.04,North,0,0.4,1.1,66,0.00,,,0.00,WUHU216HW,2013-05-18 02:07:00,
2013-05-17 22:12:00,79.9,67.5,30.04,NE,45,0.2,1.1,66,0.00,,,0.00,WUHU216HW,2013-05-18 02:12:00,
2013-05-17 22:17:00,79.7,67.8,30.05,NE,45,0.2,0.4,67,0.00,,,0.00,WUHU216HW,2013-05-18 02:17:00,
2013-05-17 22:22:00,79.6,67.6,30.05,North,0,0.7,0.7,67,0.00,,,0.00,WUHU216HW,2013-05-18 02:22:00,
2013-05-17 22:27:00,79.6,67.6,30.05,North,0,0.0,0.7,67,0.00,,,0.00,WUHU216HW,2013-05-18 02:27:00,
2013-05-17 22:33:00,79.4,67.9,30.05,North,0,0.2,0.4,68,0.00,,,0.00,WUHU216HW,2013-05-18 02:33:00,
2013-05-17 22:38:00,79.6,68.0,30.05,North,0,0.0,0.4,68,0.00,,,0.00,WUHU216HW,2013-05-18 02:38:00,
2013-05-17 22:43:00,79.4,67.9,30.05,North,0,0.0,0.2,68,0.00,,,0.00,WUHU216HW,2013-05-18 02:43:00,
2013-05-17 22:48:00,79.4,68.3,30.05,North,0,0.0,0.2,69,0.00,,,0.00,WUHU216HW,2013-05-18 02:48:00,
2013-05-17 22:53:00,79.2,68.1,30.05,North,0,0.0,0.0,69,0.00,,,0.00,WUHU216HW,2013-05-18 02:53:00,
2013-05-17 22:58:00,79.0,68.0,30.05,NNW,338,0.0,0.7,69,0.00,,,0.00,WUHU216HW,2013-05-18 02:58:00,
2013-05-17 23:03:00,78.8,68.2,30.06,NNW,338,0.0,0.7,70,0.00,,,0.00,WUHU216HW,2013-05-18 03:03:00,
2013-05-17 23:08:00,78.8,68.2,30.06,East,90,0.4,0.4,70,0.00,,,0.00,WUHU216HW,2013-05-18 03:08:00,
2013-05-17 23:13:00,78.8,67.8,30.05,East,90,0.0,0.4,69,0.00,,,0.00,WUHU216HW,2013-05-18 03:13:00,
2013-05-17 23:19:00,78.7,68.0,30.06,East,90,0.0,0.0,70,0.00,,,0.00,WUHU216HW,2013-05-18 03:19:00,
2013-05-17 23:24:00,78.5,67.9,30.06,East,90,0.2,0.4,70,0.00,,,0.00,WUHU216HW,2013-05-18 03:24:00,
2013-05-17 23:29:00,78.3,67.8,30.06,East,90,0.0,0.4,70,0.00,,,0.00,WUHU216HW,2013-05-18 03:29:00,
2013-05-17 23:34:00,78.1,68.0,30.06,East,90,0.0,0.4,71,0.00,,,0.00,WUHU216HW,2013-05-18 03:34:00,
2013-05-17 23:39:00,78.1,68.0,30.06,East,90,0.0,0.0,71,0.00,,,0.00,WUHU216HW,2013-05-18 03:39:00,
2013-05-17 23:44:00,77.9,67.8,30.05,East,90,0.0,0.0,71,0.00,,,0.00,WUHU216HW,2013-05-18 03:44:00,
2013-05-17 23:49:00,77.8,67.6,30.05,East,90,0.0,0.0,71,0.00,,,0.00,WUHU216HW,2013-05-18 03:49:00,
2013-05-17 23:54:00,77.6,67.5,30.06,East,90,0.0,0.0,71,0.00,,,0.00,WUHU216HW,2013-05-18 03:54:00,
2013-05-17 23:59:00,77.6,67.9,30.05,East,90,0.0,0.0,72,0.00,,,0.00,WUHU216HW,2013-05-18 03:59:00,